Terminal Aerodrome Forecast
Issued by NWS Cleveland, OH

Home | Current Version | Previous Version | Graphics & Text | Print | Product List | Glossary On
Versions: 1 2 3 4 5 6 7 8 9 10 11 12 13 14 15 16 17
000
FTUS41 KCLE 210459 AAB
TAFYNG
TAF AMD
KYNG 210459Z 2105/2124 VRB06KT P6SM SCT080 BKN150
     FM210900 26004KT P6SM BKN050 OVC080
     FM212200 33004KT P6SM SCT060=

USA.gov is the U.S. government's official web portal to all federal, state and local government web resources and services.